createdAt,value
2019-03-15T00:00:39.039Z,3.02
2019-03-15T00:01:44.822Z,2.83
2019-03-15T00:02:45.961Z,3.27
2019-03-15T00:03:47.133Z,2.72
2019-03-15T00:04:49.041Z,2.70
2019-03-15T00:05:50.187Z,3.08
2019-03-15T00:06:51.316Z,3.17
2019-03-15T00:07:52.444Z,2.95
2019-03-15T00:08:53.592Z,3.25
2019-03-15T00:09:54.729Z,2.55
2019-03-15T00:10:56.074Z,3.08
2019-03-15T00:11:57.205Z,2.98
2019-03-15T00:12:58.637Z,2.77
2019-03-15T00:13:59.768Z,3.05
2019-03-15T00:15:00.951Z,3.67
2019-03-15T00:16:03.993Z,3.67
2019-03-15T00:17:05.127Z,2.45
2019-03-15T00:18:06.537Z,2.65
2019-03-15T00:19:07.703Z,3.92
2019-03-15T00:20:09.231Z,2.77
2019-03-15T00:21:10.388Z,3.00
2019-03-15T00:22:11.524Z,2.50
2019-03-15T00:23:12.660Z,2.98
2019-03-15T00:24:13.788Z,3.15
2019-03-15T00:25:15.286Z,3.15
2019-03-15T00:26:17.139Z,3.27
2019-03-15T00:27:18.279Z,2.87
2019-03-15T00:28:19.420Z,3.22
2019-03-15T00:29:20.574Z,3.47
2019-03-15T00:30:21.718Z,3.85
2019-03-15T00:31:23.216Z,3.30
2019-03-15T00:32:24.350Z,3.52
2019-03-15T00:33:25.786Z,3.67
2019-03-15T00:34:26.922Z,2.98
2019-03-15T00:35:28.053Z,3.00
2019-03-15T00:36:29.201Z,3.50
2019-03-15T00:37:30.760Z,3.30
2019-03-15T00:38:31.979Z,3.42
2019-03-15T00:39:33.123Z,2.85
2019-03-15T00:40:34.533Z,4.03
2019-03-15T00:41:35.697Z,3.20
2019-03-15T00:42:36.832Z,3.40
2019-03-15T00:43:37.965Z,3.65
2019-03-15T00:44:39.110Z,3.10
2019-03-15T00:45:40.362Z,3.50
2019-03-15T00:46:41.493Z,3.50
2019-03-15T00:47:42.638Z,3.85
2019-03-15T00:48:43.777Z,3.02
2019-03-15T00:49:45.245Z,3.62
2019-03-15T00:50:46.391Z,3.10
2019-03-15T00:51:47.525Z,3.40
2019-03-15T00:52:48.756Z,3.37
2019-03-15T00:53:49.890Z,4.67
2019-03-15T00:54:51.320Z,2.85
2019-03-15T00:55:52.753Z,3.35
2019-03-15T00:56:53.889Z,3.70
2019-03-15T00:57:55.329Z,3.45
2019-03-15T00:58:56.468Z,3.72
2019-03-15T00:59:57.601Z,3.20
2019-03-15T01:00:58.740Z,3.67
2019-03-15T01:02:00.158Z,3.10
2019-03-15T01:03:01.416Z,3.55
2019-03-15T01:04:03.278Z,3.77
2019-03-15T01:05:04.417Z,3.37
2019-03-15T01:06:05.583Z,2.77
2019-03-15T01:07:07.377Z,3.42
2019-03-15T01:08:08.504Z,2.98
2019-03-15T01:09:09.646Z,3.00
2019-03-15T01:10:11.690Z,2.60
2019-03-15T01:11:12.837Z,3.27
2019-03-15T01:12:13.965Z,2.92
2019-03-15T01:13:15.105Z,3.92
2019-03-15T01:14:16.253Z,3.45
2019-03-15T01:15:17.393Z,3.22
2019-03-15T01:16:18.534Z,3.05
2019-03-15T01:17:19.668Z,3.15
2019-03-15T01:18:20.797Z,3.12
2019-03-15T01:19:21.944Z,3.62
2019-03-15T01:20:23.432Z,3.45
2019-03-15T01:21:24.578Z,3.80
2019-03-15T01:22:25.709Z,3.72
2019-03-15T01:23:27.142Z,3.65
2019-03-15T01:24:28.534Z,2.85
2019-03-15T01:25:29.665Z,4.03
2019-03-15T01:26:30.809Z,4.15
2019-03-15T01:27:32.344Z,3.75
2019-03-15T01:28:33.472Z,3.47
2019-03-15T01:29:34.601Z,2.62
2019-03-15T01:30:35.743Z,2.77
2019-03-15T01:31:37.257Z,3.87
2019-03-15T01:32:38.485Z,3.05
2019-03-15T01:33:39.698Z,3.12
2019-03-15T01:34:40.830Z,3.12
2019-03-15T01:35:41.977Z,3.62
2019-03-15T01:36:43.204Z,4.47
2019-03-15T01:37:44.377Z,2.95
2019-03-15T01:38:45.540Z,3.30
2019-03-15T01:39:46.682Z,4.20
2019-03-15T01:40:48.921Z,3.47
2019-03-15T01:41:50.281Z,3.40
2019-03-15T01:42:51.424Z,3.17
2019-03-15T01:43:52.866Z,3.80
2019-03-15T01:44:54.005Z,3.08
2019-03-15T01:45:55.547Z,3.33
2019-03-15T01:46:56.987Z,3.33
2019-03-15T01:47:58.138Z,3.40
2019-03-15T01:48:59.661Z,3.80
2019-03-15T01:50:01.207Z,4.45
2019-03-15T01:51:07.120Z,4.40
2019-03-15T01:52:08.305Z,3.85
2019-03-15T01:53:09.433Z,3.60
2019-03-15T01:54:10.560Z,3.47
2019-03-15T01:55:11.897Z,3.45
2019-03-15T01:56:13.033Z,3.92
2019-03-15T01:57:14.456Z,3.65
2019-03-15T01:58:15.592Z,3.12
2019-03-15T01:59:17.049Z,2.85
2019-03-15T02:00:18.182Z,3.20
2019-03-15T02:01:19.317Z,3.10
2019-03-15T02:02:20.459Z,3.45
2019-03-15T02:03:21.624Z,3.58
2019-03-15T02:04:22.829Z,3.30
2019-03-15T02:05:23.962Z,3.98
2019-03-15T02:06:36.073Z,3.25
2019-03-15T02:07:37.561Z,3.40
2019-03-15T02:08:39.004Z,3.42
2019-03-15T02:09:40.137Z,4.22
2019-03-15T02:10:41.275Z,3.10
2019-03-15T02:11:42.425Z,3.67
2019-03-15T02:12:43.574Z,3.45
2019-03-15T02:13:44.987Z,3.83
2019-03-15T02:14:46.484Z,3.55
2019-03-15T02:15:48.068Z,4.40
2019-03-15T02:16:49.292Z,3.47
2019-03-15T02:17:50.787Z,2.98
2019-03-15T02:18:52.194Z,3.92
2019-03-15T02:19:53.334Z,3.83
2019-03-15T02:20:54.472Z,4.03
2019-03-15T02:21:55.669Z,3.42
2019-03-15T02:22:56.797Z,3.27
2019-03-15T02:23:57.941Z,3.40
2019-03-15T02:24:59.078Z,3.27
2019-03-15T02:26:00.217Z,3.22
2019-03-15T02:27:01.435Z,3.30
2019-03-15T02:28:02.745Z,3.62
2019-03-15T02:29:03.895Z,3.92
2019-03-15T02:30:10.017Z,3.12
2019-03-15T02:31:11.245Z,3.87
2019-03-15T02:32:12.899Z,3.90
2019-03-15T02:33:14.490Z,3.50
2019-03-15T02:34:15.627Z,4.15
2019-03-15T02:35:16.810Z,3.50
2019-03-15T02:36:18.021Z,4.10
2019-03-15T02:37:19.168Z,3.42
2019-03-15T02:38:20.308Z,3.27
2019-03-15T02:39:21.446Z,3.50
2019-03-15T02:40:22.585Z,3.70
2019-03-15T02:41:23.813Z,3.37
2019-03-15T02:42:26.073Z,3.17
2019-03-15T02:43:27.531Z,3.22
2019-03-15T02:44:28.861Z,3.17
2019-03-15T02:45:30.110Z,3.77
2019-03-15T02:46:31.260Z,3.60
2019-03-15T02:47:32.405Z,3.20
2019-03-15T02:48:33.551Z,3.80
2019-03-15T02:49:34.970Z,3.37
2019-03-15T02:50:36.343Z,3.55
2019-03-15T02:51:37.479Z,4.33
2019-03-15T02:52:38.683Z,3.40
2019-03-15T02:53:39.837Z,3.52
2019-03-15T02:54:40.965Z,3.33
2019-03-15T02:55:43.034Z,4.62
2019-03-15T02:56:44.187Z,3.45
2019-03-15T02:57:45.345Z,3.15
2019-03-15T02:58:46.485Z,3.85
2019-03-15T02:59:47.707Z,3.00
2019-03-15T03:00:48.875Z,3.00
2019-03-15T03:01:50.018Z,4.12
2019-03-15T03:02:51.182Z,3.25
2019-03-15T03:03:52.613Z,3.60
2019-03-15T03:04:53.756Z,3.22
2019-03-15T03:05:54.898Z,3.52
2019-03-15T03:06:56.040Z,3.35
2019-03-15T03:07:57.189Z,4.05
2019-03-15T03:08:58.331Z,3.08
2019-03-15T03:09:59.480Z,3.98
2019-03-15T03:11:00.723Z,3.55
2019-03-15T03:12:01.858Z,3.50
2019-03-15T03:13:03.105Z,3.37
2019-03-15T03:14:04.465Z,3.08
2019-03-15T03:15:06.583Z,3.20
2019-03-15T03:16:07.719Z,4.05
2019-03-15T03:17:08.861Z,3.77
2019-03-15T03:18:10.017Z,3.30
2019-03-15T03:19:11.154Z,3.37
2019-03-15T03:20:12.363Z,2.95
2019-03-15T03:21:15.182Z,3.80
2019-03-15T03:22:16.583Z,3.80
2019-03-15T03:23:18.105Z,3.60
2019-03-15T03:24:19.241Z,4.17
2019-03-15T03:25:20.498Z,3.90
2019-03-15T03:26:21.646Z,3.37
2019-03-15T03:27:22.799Z,4.17
2019-03-15T03:28:23.952Z,4.00
2019-03-15T03:29:25.114Z,3.22
2019-03-15T03:30:26.262Z,3.65
2019-03-15T03:31:27.402Z,3.33
2019-03-15T03:32:28.538Z,3.45
2019-03-15T03:33:29.691Z,3.37
2019-03-15T03:34:30.865Z,4.53
2019-03-15T03:35:32.002Z,3.02
2019-03-15T03:36:33.151Z,4.17
2019-03-15T03:37:34.294Z,3.83
2019-03-15T03:38:35.460Z,3.50
2019-03-15T03:39:36.605Z,3.55
2019-03-15T03:40:37.753Z,4.05
2019-03-15T03:41:38.885Z,4.65
2019-03-15T03:42:40.035Z,3.58
2019-03-15T03:43:41.230Z,3.55
2019-03-15T03:44:42.366Z,3.77
2019-03-15T03:45:43.502Z,3.30
2019-03-15T03:46:44.641Z,3.45
2019-03-15T03:47:45.878Z,2.95
2019-03-15T03:48:47.033Z,4.12
2019-03-15T03:49:48.182Z,4.25
2019-03-15T03:50:49.361Z,4.15
2019-03-15T03:51:50.602Z,3.70
2019-03-15T03:52:51.770Z,3.72
2019-03-15T03:53:52.914Z,3.30
2019-03-15T03:54:54.048Z,4.83
2019-03-15T03:55:55.314Z,3.10
2019-03-15T03:56:56.606Z,3.52
2019-03-15T03:57:57.854Z,3.45
2019-03-15T03:58:59.277Z,3.95
2019-03-15T04:00:00.428Z,3.27
2019-03-15T04:01:01.561Z,2.85
2019-03-15T04:02:02.982Z,3.90
2019-03-15T04:03:04.118Z,3.37
2019-03-15T04:04:05.265Z,3.70
2019-03-15T04:05:06.705Z,3.27
2019-03-15T04:06:07.846Z,5.22
2019-03-15T04:07:09.192Z,3.08
2019-03-15T04:08:10.422Z,4.00
2019-03-15T04:09:11.773Z,3.80
2019-03-15T04:10:12.912Z,3.58
2019-03-15T04:11:14.054Z,4.00
2019-03-15T04:12:15.192Z,4.05
2019-03-15T04:13:16.331Z,3.10
2019-03-15T04:14:17.481Z,3.37
2019-03-15T04:15:18.668Z,3.20
2019-03-15T04:16:19.806Z,3.25
2019-03-15T04:17:20.948Z,3.35
2019-03-15T04:18:22.102Z,3.80
2019-03-15T04:19:24.327Z,4.22
2019-03-15T04:20:25.538Z,3.52
2019-03-15T04:21:26.685Z,3.30
2019-03-15T04:22:27.831Z,3.30
2019-03-15T04:23:28.989Z,3.25
2019-03-15T04:24:30.136Z,3.72
2019-03-15T04:25:31.274Z,3.85
2019-03-15T04:26:32.438Z,3.83
2019-03-15T04:27:33.585Z,3.58
2019-03-15T04:28:34.785Z,3.77
2019-03-15T04:29:36.002Z,3.80
2019-03-15T04:30:37.133Z,3.72
2019-03-15T04:31:38.278Z,4.00
2019-03-15T04:32:39.533Z,3.85
2019-03-15T04:33:40.713Z,3.27
2019-03-15T04:34:41.960Z,3.22
2019-03-15T04:35:43.206Z,2.87
2019-03-15T04:36:44.369Z,3.92
2019-03-15T04:37:45.508Z,2.83
2019-03-15T04:38:46.957Z,3.17
2019-03-15T04:39:48.097Z,3.72
2019-03-15T04:40:49.266Z,3.30
2019-03-15T04:41:50.414Z,3.83
2019-03-15T04:42:52.961Z,3.33
2019-03-15T04:43:54.125Z,3.35
2019-03-15T04:44:55.269Z,2.92
2019-03-15T04:45:56.419Z,3.90
2019-03-15T04:46:57.557Z,3.55
2019-03-15T04:47:58.769Z,3.87
2019-03-15T04:48:59.928Z,4.08
2019-03-15T04:50:01.086Z,3.55
2019-03-15T04:51:04.314Z,3.15
2019-03-15T04:52:05.461Z,2.98
2019-03-15T04:53:06.915Z,3.47
2019-03-15T04:54:08.070Z,3.95
2019-03-15T04:55:09.268Z,3.67
2019-03-15T04:56:10.486Z,3.77
2019-03-15T04:57:11.633Z,3.70
2019-03-15T04:58:12.774Z,3.50
2019-03-15T04:59:13.917Z,4.00
2019-03-15T05:00:15.049Z,3.95
2019-03-15T05:01:16.226Z,4.00
2019-03-15T05:02:17.375Z,3.60
2019-03-15T05:03:18.508Z,3.60
2019-03-15T05:04:19.834Z,3.00
2019-03-15T05:05:20.966Z,3.40
2019-03-15T05:06:22.101Z,3.72
2019-03-15T05:07:23.246Z,3.50
2019-03-15T05:08:24.390Z,3.95
2019-03-15T05:09:25.544Z,3.65
2019-03-15T05:10:26.681Z,4.95
2019-03-15T05:11:27.821Z,4.17
2019-03-15T05:12:29.071Z,4.97
2019-03-15T05:13:30.205Z,4.05
2019-03-15T05:14:31.364Z,4.40
2019-03-15T05:15:32.668Z,3.55
2019-03-15T05:16:35.866Z,4.53
2019-03-15T05:17:37.001Z,3.90
2019-03-15T05:18:38.142Z,4.00
2019-03-15T05:19:39.290Z,3.98
2019-03-15T05:20:40.531Z,3.47
2019-03-15T05:21:41.709Z,4.28
2019-03-15T05:22:42.899Z,3.75
2019-03-15T05:23:44.116Z,3.85
2019-03-15T05:24:45.448Z,3.10
2019-03-15T05:25:46.737Z,3.27
2019-03-15T05:26:47.890Z,3.47
2019-03-15T05:27:49.081Z,3.98
2019-03-15T05:28:50.198Z,4.00
2019-03-15T05:29:51.350Z,3.22
2019-03-15T05:30:52.498Z,3.75
2019-03-15T05:31:53.723Z,4.35
2019-03-15T05:32:54.862Z,3.65
2019-03-15T05:33:56.005Z,3.70
2019-03-15T05:34:57.158Z,4.12
2019-03-15T05:35:58.320Z,4.03
2019-03-15T05:36:59.905Z,5.70
2019-03-15T05:38:01.050Z,3.80
2019-03-15T05:39:03.989Z,4.67
2019-03-15T05:40:06.406Z,4.28
2019-03-15T05:41:07.553Z,4.08
2019-03-15T05:42:08.690Z,3.75
2019-03-15T05:43:09.842Z,4.58
2019-03-15T05:44:10.992Z,4.25
2019-03-15T05:45:12.246Z,3.75
2019-03-15T05:46:13.384Z,4.37
2019-03-15T05:47:14.526Z,4.08
2019-03-15T05:48:15.665Z,4.08
2019-03-15T05:49:16.793Z,3.87
2019-03-15T05:50:17.962Z,4.10
2019-03-15T05:51:19.099Z,4.25
2019-03-15T05:52:20.239Z,3.70
2019-03-15T05:53:21.394Z,3.37
2019-03-15T05:54:22.535Z,4.08
2019-03-15T05:55:23.681Z,4.05
2019-03-15T05:56:24.851Z,4.05
2019-03-15T05:57:25.995Z,4.53
2019-03-15T05:58:27.135Z,3.67
2019-03-15T05:59:28.273Z,3.40
2019-03-15T06:00:29.422Z,3.52
2019-03-15T06:01:30.808Z,3.40
2019-03-15T06:02:31.967Z,4.95
2019-03-15T06:03:33.110Z,4.55
2019-03-15T06:04:34.298Z,3.83
2019-03-15T06:05:35.476Z,3.85
2019-03-15T06:06:36.713Z,3.80
2019-03-15T06:07:37.860Z,3.70
2019-03-15T06:08:39.000Z,3.47
2019-03-15T06:09:40.142Z,4.62
2019-03-15T06:10:41.278Z,3.87
2019-03-15T06:11:42.488Z,4.37
2019-03-15T06:12:43.821Z,4.10
2019-03-15T06:13:44.961Z,4.03
2019-03-15T06:14:46.998Z,4.15
2019-03-15T06:15:48.925Z,3.80
2019-03-15T06:16:50.079Z,3.45
2019-03-15T06:17:51.237Z,3.60
2019-03-15T06:18:52.629Z,3.37
2019-03-15T06:19:53.774Z,3.15
2019-03-15T06:20:54.922Z,3.33
2019-03-15T06:21:56.067Z,3.22
2019-03-15T06:22:57.214Z,4.45
2019-03-15T06:23:58.417Z,3.83
2019-03-15T06:24:59.597Z,3.25
2019-03-15T06:26:00.735Z,4.00
2019-03-15T06:27:01.873Z,3.00
2019-03-15T06:28:03.027Z,3.27
2019-03-15T06:29:04.167Z,3.42
2019-03-15T06:30:12.930Z,3.50
2019-03-15T06:31:14.086Z,3.80
2019-03-15T06:32:15.228Z,3.77
2019-03-15T06:33:16.422Z,4.08
2019-03-15T06:34:17.649Z,3.70
2019-03-15T06:35:18.781Z,4.35
2019-03-15T06:36:19.919Z,3.75
2019-03-15T06:37:22.953Z,3.83
2019-03-15T06:38:24.114Z,3.45
2019-03-15T06:39:25.264Z,3.83
2019-03-15T06:40:26.402Z,3.58
2019-03-15T06:41:28.210Z,3.65
2019-03-15T06:42:29.494Z,3.08
2019-03-15T06:43:30.650Z,3.85
2019-03-15T06:44:31.786Z,3.40
2019-03-15T06:45:32.925Z,3.30
2019-03-15T06:46:34.061Z,3.60
2019-03-15T06:47:35.201Z,3.12
2019-03-15T06:48:36.350Z,3.47
2019-03-15T06:49:37.507Z,3.75
2019-03-15T06:50:38.788Z,3.90
2019-03-15T06:51:39.997Z,4.28
2019-03-15T06:52:41.197Z,3.58
2019-03-15T06:53:42.350Z,3.02
2019-03-15T06:54:43.490Z,3.72
2019-03-15T06:55:44.630Z,3.98
2019-03-15T06:56:45.770Z,3.92
2019-03-15T06:57:46.912Z,2.98
2019-03-15T06:58:48.073Z,3.70
2019-03-15T06:59:49.282Z,3.90
2019-03-15T07:00:50.419Z,3.62
2019-03-15T07:01:51.562Z,4.58
2019-03-15T07:02:52.722Z,3.85
2019-03-15T07:03:53.875Z,4.05
2019-03-15T07:04:55.022Z,4.35
2019-03-15T07:05:56.166Z,4.75
2019-03-15T07:06:57.313Z,3.85
2019-03-15T07:07:58.448Z,3.83
2019-03-15T07:08:59.776Z,4.22
2019-03-15T07:10:00.956Z,4.08
2019-03-15T07:11:02.197Z,4.12
2019-03-15T07:12:09.245Z,4.65
2019-03-15T07:13:06.493Z,4.75
2019-03-15T07:14:07.651Z,4.75
2019-03-15T07:15:10.296Z,4.72
2019-03-15T07:16:11.440Z,4.58
2019-03-15T07:17:12.573Z,4.85
2019-03-15T07:18:14.219Z,4.28
2019-03-15T07:19:25.454Z,4.42
2019-03-15T07:20:18.542Z,4.50
2019-03-15T07:21:19.686Z,5.25
2019-03-15T07:22:20.817Z,4.95
2019-03-15T07:23:21.956Z,4.95
2019-03-15T07:24:25.386Z,5.50
2019-03-15T07:25:26.148Z,4.37
2019-03-15T07:26:27.413Z,4.58
2019-03-15T07:27:28.542Z,6.00
2019-03-15T07:28:29.683Z,5.15
2019-03-15T07:29:30.834Z,4.97
2019-03-15T07:30:31.965Z,5.80
2019-03-15T07:31:33.109Z,5.12
2019-03-15T07:32:34.367Z,6.37
2019-03-15T07:33:35.510Z,4.60
2019-03-15T07:34:36.675Z,5.40
2019-03-15T07:35:37.814Z,6.50
2019-03-15T07:36:38.959Z,6.37
2019-03-15T07:37:40.101Z,5.78
2019-03-15T07:38:41.266Z,5.92
2019-03-15T07:39:42.427Z,6.00
2019-03-15T07:40:43.562Z,6.97
2019-03-15T07:41:44.707Z,6.97
2019-03-15T07:42:46.221Z,6.87
2019-03-15T07:43:47.397Z,6.92
2019-03-15T07:44:49.147Z,7.03
2019-03-15T07:45:50.501Z,6.55
2019-03-15T07:46:51.639Z,8.33
2019-03-15T07:47:52.789Z,7.33
2019-03-15T07:48:53.933Z,7.95
2019-03-15T07:49:55.103Z,7.47
2019-03-15T07:50:56.281Z,7.47
2019-03-15T07:51:57.425Z,7.22
2019-03-15T07:52:58.591Z,8.60
2019-03-15T07:53:59.751Z,8.23
2019-03-15T07:55:00.932Z,8.95
2019-03-15T07:56:02.151Z,9.30
2019-03-15T07:57:03.303Z,8.43
2019-03-15T07:58:04.459Z,8.13
2019-03-15T07:59:05.617Z,9.35
2019-03-15T08:00:15.599Z,8.95
2019-03-15T08:01:16.770Z,9.13
2019-03-15T08:02:17.926Z,9.40
2019-03-15T08:03:19.071Z,9.43
2019-03-15T08:04:20.232Z,10.35
2019-03-15T08:05:21.373Z,10.25
2019-03-15T08:06:34.279Z,9.18
2019-03-15T08:07:35.749Z,9.48
2019-03-15T08:08:28.789Z,9.88
2019-03-15T08:09:30.227Z,10.40
2019-03-15T08:10:31.375Z,10.53
2019-03-15T08:11:32.541Z,12.18
2019-03-15T08:12:33.695Z,11.45
2019-03-15T08:13:34.850Z,12.30
2019-03-15T08:14:35.992Z,12.43
2019-03-15T08:15:37.130Z,12.20
2019-03-15T08:16:38.273Z,11.12
2019-03-15T08:17:39.410Z,11.95
2019-03-15T08:18:40.781Z,11.65
2019-03-15T08:19:41.930Z,12.20
2019-03-15T08:20:43.078Z,11.83
2019-03-15T08:21:44.214Z,12.63
2019-03-15T08:22:45.366Z,13.00
2019-03-15T08:23:46.503Z,13.08
2019-03-15T08:24:51.785Z,13.15
2019-03-15T08:25:50.761Z,13.48
2019-03-15T08:26:51.950Z,12.98
2019-03-15T08:27:53.090Z,14.05
2019-03-15T08:28:54.256Z,14.23
2019-03-15T08:29:55.410Z,14.13
2019-03-15T08:30:56.546Z,14.03
2019-03-15T08:31:57.685Z,14.23
2019-03-15T08:33:09.570Z,13.80
2019-03-15T08:34:02.684Z,13.32
2019-03-15T08:35:05.736Z,14.47
2019-03-15T08:36:06.975Z,15.23
2019-03-15T08:37:08.125Z,14.55
2019-03-15T08:38:09.257Z,15.10
2019-03-15T08:39:10.416Z,15.55
2019-03-15T08:40:12.441Z,14.87
2019-03-15T08:41:13.577Z,13.28
2019-03-15T08:42:14.723Z,13.95
2019-03-15T08:43:15.857Z,14.30
2019-03-15T08:44:17.000Z,14.58
2019-03-15T08:45:19.341Z,13.45
2019-03-15T08:46:20.494Z,13.72
2019-03-15T08:47:21.980Z,14.00
2019-03-15T08:48:23.290Z,12.28
2019-03-15T08:49:24.444Z,13.30
2019-03-15T08:50:25.603Z,13.70
2019-03-15T08:51:26.754Z,12.68
2019-03-15T08:52:27.890Z,13.55
2019-03-15T08:53:29.046Z,13.78
2019-03-15T08:54:30.189Z,12.93
2019-03-15T08:55:31.341Z,13.48
2019-03-15T08:56:32.482Z,13.65
2019-03-15T08:57:33.779Z,13.48
2019-03-15T08:58:34.998Z,15.80
2019-03-15T08:59:37.550Z,14.23
2019-03-15T09:00:38.754Z,14.70
2019-03-15T09:01:39.946Z,12.85
2019-03-15T09:02:41.081Z,12.55
2019-03-15T09:03:42.217Z,13.43
2019-03-15T09:04:43.371Z,13.72
2019-03-15T09:05:44.518Z,12.65
2019-03-15T09:06:45.658Z,13.18
2019-03-15T09:07:46.805Z,13.08
2019-03-15T09:08:47.942Z,13.70
2019-03-15T09:09:49.079Z,13.48
2019-03-15T09:10:50.225Z,13.48
2019-03-15T09:11:51.428Z,13.83
2019-03-15T09:12:52.630Z,11.95
2019-03-15T09:13:53.787Z,13.20
2019-03-15T09:14:54.963Z,12.88
2019-03-15T09:15:56.111Z,12.55
2019-03-15T09:16:57.245Z,14.07
2019-03-15T09:17:58.387Z,12.10
2019-03-15T09:18:59.539Z,13.40
2019-03-15T09:20:00.701Z,12.60
2019-03-15T09:21:01.858Z,12.40
2019-03-15T09:22:02.998Z,12.45
2019-03-15T09:23:04.136Z,14.47
2019-03-15T09:24:05.273Z,12.23
2019-03-15T09:25:18.679Z,11.40
2019-03-15T09:26:11.868Z,12.58
2019-03-15T09:27:13.050Z,12.45
2019-03-15T09:28:14.185Z,12.28
2019-03-15T09:29:15.592Z,12.53
2019-03-15T09:30:24.560Z,12.63
2019-03-15T09:31:19.805Z,11.73
2019-03-15T09:32:22.847Z,12.40
2019-03-15T09:33:23.981Z,11.80
2019-03-15T09:34:25.394Z,12.37
2019-03-15T09:35:26.633Z,13.08
2019-03-15T09:36:27.783Z,13.28
2019-03-15T09:37:28.931Z,11.40
2019-03-15T09:38:30.062Z,12.58
2019-03-15T09:39:31.289Z,13.30
2019-03-15T09:40:32.530Z,12.37
2019-03-15T09:41:39.488Z,13.60
2019-03-15T09:42:36.714Z,12.98
2019-03-15T09:43:37.850Z,13.30
2019-03-15T09:44:39.247Z,13.43
2019-03-15T09:45:40.505Z,12.78
2019-03-15T09:46:41.743Z,14.05
2019-03-15T09:47:42.998Z,14.58
2019-03-15T09:48:44.148Z,16.60
2019-03-15T09:49:45.334Z,14.35
2019-03-15T09:50:51.515Z,15.03
2019-03-15T09:51:49.734Z,15.85
2019-03-15T09:52:50.884Z,15.05
2019-03-15T09:53:52.038Z,15.98
2019-03-15T09:54:53.285Z,15.38
2019-03-15T09:55:54.441Z,17.27
2019-03-15T09:56:55.583Z,15.68
2019-03-15T09:57:56.718Z,15.72
2019-03-15T09:58:57.858Z,16.65
2019-03-15T09:59:59.267Z,16.20
2019-03-15T10:01:00.607Z,15.48
2019-03-15T10:02:01.769Z,15.23
2019-03-15T10:03:02.924Z,15.58
2019-03-15T10:04:04.057Z,14.43
2019-03-15T10:05:11.309Z,16.93
2019-03-15T10:06:16.571Z,14.83
2019-03-15T10:07:13.028Z,15.60
2019-03-15T10:08:14.472Z,15.38
2019-03-15T10:09:15.610Z,15.68
2019-03-15T10:10:18.983Z,17.70
2019-03-15T10:11:20.354Z,16.20
2019-03-15T10:12:21.502Z,16.23
2019-03-15T10:13:22.674Z,17.07
2019-03-15T10:14:23.894Z,14.80
2019-03-15T10:15:26.574Z,15.32
2019-03-15T10:16:27.797Z,13.15
2019-03-15T10:17:28.964Z,13.32
2019-03-15T10:18:30.181Z,14.07
2019-03-15T10:19:31.319Z,14.55
2019-03-15T10:20:32.863Z,15.38
2019-03-15T10:21:34.105Z,14.58
2019-03-15T10:23:41.054Z,14.75
2019-03-15T10:24:42.193Z,13.95
2019-03-15T10:25:48.414Z,14.35
2019-03-15T10:26:47.286Z,13.88
2019-03-15T10:27:48.424Z,12.73
2019-03-15T10:28:49.570Z,14.25
2019-03-15T10:29:50.716Z,12.78
2019-03-15T10:30:51.858Z,12.98
2019-03-15T10:31:53.095Z,13.45
2019-03-15T10:32:54.228Z,12.55
2019-03-15T10:33:55.366Z,12.53
2019-03-15T10:34:56.507Z,12.55
2019-03-15T10:35:57.652Z,11.83
2019-03-15T10:36:58.803Z,13.30
2019-03-15T10:37:59.936Z,12.50
2019-03-15T10:39:01.099Z,12.05
2019-03-15T10:40:05.070Z,12.43
2019-03-15T10:41:06.268Z,11.90
2019-03-15T10:42:07.425Z,12.37
2019-03-15T10:43:08.565Z,10.40
2019-03-15T10:44:09.733Z,11.95
2019-03-15T10:45:10.879Z,11.45
2019-03-15T10:46:12.021Z,12.30
2019-03-15T10:47:13.273Z,11.50
2019-03-15T10:48:24.556Z,10.60
2019-03-15T10:49:17.441Z,10.80
2019-03-15T10:50:18.685Z,10.32
2019-03-15T10:51:19.830Z,11.45
2019-03-15T10:52:20.966Z,11.12
2019-03-15T10:53:22.119Z,10.90
2019-03-15T10:54:23.257Z,11.18
2019-03-15T10:55:24.401Z,11.50
2019-03-15T10:56:25.558Z,10.68
2019-03-15T10:57:26.698Z,11.22
2019-03-15T10:58:27.983Z,9.80
2019-03-15T10:59:29.114Z,10.82
2019-03-15T11:00:31.050Z,10.43
2019-03-15T11:01:32.200Z,11.43
2019-03-15T11:02:33.342Z,10.88
2019-03-15T11:03:34.485Z,10.63
2019-03-15T11:04:35.626Z,10.60
2019-03-15T11:05:36.769Z,10.45
2019-03-15T11:06:37.998Z,11.50
2019-03-15T11:07:39.142Z,11.33
2019-03-15T11:08:40.274Z,13.60
2019-03-15T11:09:41.676Z,12.13
2019-03-15T11:10:42.805Z,10.70
2019-03-15T11:11:43.985Z,11.55
2019-03-15T11:12:45.136Z,10.70
2019-03-15T11:13:46.285Z,12.73
2019-03-15T11:14:47.434Z,12.35
2019-03-15T11:15:48.770Z,11.45
2019-03-15T11:16:49.914Z,13.10
2019-03-15T11:17:51.048Z,10.72
2019-03-15T11:18:52.462Z,11.68
2019-03-15T11:19:53.592Z,12.20
2019-03-15T11:20:54.731Z,10.58
2019-03-15T11:21:55.927Z,11.18
2019-03-15T11:22:57.231Z,12.33
2019-03-15T11:23:58.633Z,11.10
2019-03-15T11:24:59.778Z,11.85
2019-03-15T11:26:13.125Z,12.30
2019-03-15T11:27:04.021Z,11.78
2019-03-15T11:28:05.162Z,11.15
2019-03-15T11:29:06.317Z,11.60
2019-03-15T11:30:11.724Z,11.08
2019-03-15T11:31:12.862Z,11.22
2019-03-15T11:32:14.021Z,11.93
2019-03-15T11:33:15.161Z,11.18
2019-03-15T11:34:16.310Z,12.43
2019-03-15T18:36:43.826Z,1.50
2019-03-15T18:37:45.185Z,1.43
2019-03-15T18:42:52.338Z,1.67
2019-03-15T18:43:53.810Z,1.20
2019-03-15T18:44:55.078Z,1.60
2019-03-15T18:45:56.229Z,1.87
2019-03-15T18:46:57.653Z,1.47
2019-03-15T18:47:58.791Z,1.50
2019-03-15T18:48:59.939Z,1.83
2019-03-15T18:50:01.082Z,2.00
2019-03-15T18:51:02.227Z,1.77
2019-03-15T18:52:03.397Z,1.40
2019-03-15T18:53:04.630Z,1.67
2019-03-15T18:54:17.080Z,1.27
2019-03-15T18:55:09.384Z,2.50
2019-03-15T18:56:10.782Z,2.13
2019-03-15T18:57:11.931Z,1.90
2019-03-15T18:58:13.522Z,2.07
2019-03-15T18:59:14.661Z,1.72
2019-03-15T19:00:19.861Z,1.80
2019-03-15T19:01:21.015Z,1.63
2019-03-15T19:02:22.216Z,2.00
2019-03-15T19:03:23.363Z,1.25
2019-03-15T19:04:24.602Z,2.40
2019-03-15T19:05:25.740Z,1.90
2019-03-15T19:06:26.877Z,2.13
2019-03-15T19:07:28.034Z,2.40
2019-03-15T19:08:29.180Z,1.95
2019-03-15T19:09:30.321Z,2.62
2019-03-15T19:10:31.458Z,2.20
2019-03-15T19:11:32.594Z,2.08
2019-03-15T19:12:33.746Z,2.83
2019-03-15T19:13:34.889Z,2.40
2019-03-15T19:14:36.030Z,2.70
2019-03-15T19:15:37.190Z,3.02
2019-03-15T19:16:38.326Z,2.23
2019-03-15T19:17:39.558Z,2.58
2019-03-15T19:18:40.706Z,1.57
2019-03-15T19:21:46.314Z,2.10
2019-03-15T19:22:47.471Z,3.75
2019-03-15T19:23:48.616Z,3.25
2019-03-15T19:24:49.771Z,2.30
2019-03-15T19:25:51.185Z,2.20
2019-03-15T19:26:52.334Z,3.60
2019-03-15T19:27:53.492Z,2.83
2019-03-15T19:28:54.634Z,2.00
2019-03-15T19:29:56.097Z,1.80
2019-03-15T19:30:57.326Z,2.35
2019-03-15T19:31:58.491Z,2.37
2019-03-15T19:32:59.682Z,2.27
2019-03-15T19:34:00.988Z,2.07
2019-03-15T19:36:03.249Z,2.30
2019-03-15T19:37:04.402Z,2.25
2019-03-15T19:38:05.555Z,2.08
2019-03-15T19:39:06.836Z,2.50
2019-03-15T19:40:13.352Z,2.80
2019-03-15T19:41:14.793Z,2.05
2019-03-15T19:42:15.952Z,1.57
2019-03-15T19:43:17.186Z,1.52
2019-03-15T19:44:18.341Z,2.00
2019-03-15T19:45:19.487Z,1.77
2019-03-15T19:46:20.663Z,1.67
2019-03-15T19:47:21.798Z,1.60
2019-03-15T19:48:22.958Z,2.15
2019-03-15T19:49:24.106Z,2.00
2019-03-15T19:50:25.332Z,2.00
2019-03-15T19:51:26.470Z,1.70
2019-03-15T19:52:28.019Z,1.80
2019-03-15T19:53:29.180Z,1.80
2019-03-15T19:54:31.911Z,1.30
2019-03-15T19:55:33.279Z,2.05
2019-03-15T19:56:34.422Z,2.47
2019-03-15T19:57:35.617Z,2.20
2019-03-15T19:58:36.753Z,1.87
2019-03-15T19:59:37.990Z,1.60
2019-03-15T20:00:39.232Z,2.00
2019-03-15T20:01:40.378Z,2.45
2019-03-15T20:02:41.530Z,3.25
2019-03-15T20:03:44.398Z,2.50
2019-03-15T20:04:45.751Z,6.70
2019-03-15T20:05:46.990Z,1.77
2019-03-15T20:06:49.843Z,2.67
2019-03-15T20:07:51.375Z,1.45
2019-03-15T20:08:52.645Z,2.50
2019-03-15T20:09:53.835Z,1.63
2019-03-15T20:10:55.041Z,1.95
2019-03-15T20:11:56.191Z,2.42
2019-03-15T20:12:57.338Z,1.67
2019-03-15T20:13:58.477Z,1.82
2019-03-15T20:14:59.614Z,1.90
2019-03-15T20:16:00.792Z,1.52
2019-03-15T20:17:02.130Z,1.82
2019-03-15T20:18:03.322Z,1.62
2019-03-15T20:19:04.465Z,2.00
2019-03-15T20:20:11.805Z,2.00
2019-03-15T20:24:16.169Z,2.22
2019-03-15T20:25:17.437Z,1.83
2019-03-15T20:26:18.666Z,2.00
2019-03-15T20:27:20.140Z,2.07
2019-03-15T20:28:21.294Z,2.00
2019-03-15T20:29:22.453Z,1.33
2019-03-15T20:30:26.693Z,2.00
2019-03-15T20:31:27.325Z,2.00
2019-03-15T20:32:28.469Z,1.90
2019-03-15T20:33:29.631Z,1.80
2019-03-15T20:34:30.762Z,2.30
2019-03-15T20:38:35.021Z,2.40
2019-03-15T20:39:36.162Z,2.50
2019-03-15T20:40:37.423Z,2.00
2019-03-15T20:45:42.667Z,2.10
2019-03-15T20:46:43.809Z,2.40
2019-03-15T20:50:48.049Z,2.10
2019-03-15T20:53:51.420Z,2.40
2019-03-15T20:58:57.029Z,1.62